Time;durP1;ratioP1;P1;durP2;ratioP2;P2;SDS_P1;SDS_P2;PMS_P1;PMS_P2;Temp;Humidity;BMP_temperature;BMP_pressure;BME280_temperature;BME280_humidity;BME280_pressure;Samples;Min_cycle;Max_cycle;Signal;HPM_P1;HPM_P2
2022/03/21 00:00:59;;;;;;;;;;;;;;;-0.08;74.52;102866.03;4969296;28;20041;-91
2022/03/21 00:03:28;;;;;;;48.38;23.52;;;;;;;-0.10;77.32;102872.25;4945914;28;19913;-83
2022/03/21 00:05:55;;;;;;;45.53;22.48;;;;;;;-0.17;76.33;102863.31;4994563;28;20038;-84
2022/03/21 00:08:22;;;;;;;51.33;23.58;;;;;;;-0.16;76.41;102865.09;4992152;28;20042;-92
2022/03/21 00:10:48;;;;;;;47.63;23.83;;;;;;;-0.16;76.56;102867.78;4983566;28;20018;-83
2022/03/21 00:13:14;;;;;;;47.05;23.02;;;;;;;-0.15;76.65;102858.88;4980494;28;20045;-84
2022/03/21 00:15:40;;;;;;;54.97;25.90;;;;;;;-0.19;77.39;102861.50;4986542;28;20084;-87
2022/03/21 00:18:06;;;;;;;46.85;24.10;;;;;;;-0.23;76.77;102854.34;4982765;28;20120;-91
2022/03/21 00:20:32;;;;;;;52.50;24.35;;;;;;;-0.24;77.37;102864.16;5004884;28;20099;-86
2022/03/21 00:22:58;;;;;;;50.42;25.45;;;;;;;-0.26;77.66;102869.53;4992340;28;20030;-86
2022/03/21 00:25:24;;;;;;;50.00;25.38;;;;;;;-0.31;77.96;102868.59;4976037;28;20037;-82
2022/03/21 00:27:49;;;;;;;53.10;24.35;;;;;;;-0.29;77.94;102872.16;4991002;28;20512;-83
2022/03/21 00:30:16;;;;;;;54.20;26.20;;;;;;;-0.32;79.08;102873.97;4975029;28;20064;-85
2022/03/21 00:32:42;;;;;;;44.60;23.23;;;;;;;-0.36;77.17;102874.81;4975404;28;20069;-87
2022/03/21 00:35:10;;;;;;;46.63;23.92;;;;;;;-0.38;76.87;102873.91;4991168;28;20033;-87
2022/03/21 00:37:37;;;;;;;45.58;23.88;;;;;;;-0.37;76.67;102879.28;4984679;28;20046;-84
2022/03/21 00:40:05;;;;;;;59.13;24.02;;;;;;;-0.39;76.89;102881.03;4990962;28;20076;-93
2022/03/21 00:42:34;;;;;;;43.63;22.50;;;;;;;-0.44;76.71;102880.13;4977733;28;20034;-85
2022/03/21 00:45:01;;;;;;;42.92;23.23;;;;;;;-0.45;76.73;102883.69;4994196;28;20026;-87
2022/03/21 00:47:26;;;;;;;52.72;25.02;;;;;;;-0.46;76.56;102889.03;4981646;28;20050;-87
2022/03/21 00:49:52;;;;;;;48.30;25.20;;;;;;;-0.50;77.71;102885.44;4991724;28;20129;-83
2022/03/21 00:52:19;;;;;;;44.10;23.70;;;;;;;-0.50;77.85;102892.56;4986327;28;20046;-87
2022/03/21 00:54:45;;;;;;;46.38;23.55;;;;;;;-0.56;78.60;102883.63;4971762;28;20031;-85
2022/03/21 00:57:10;;;;;;;49.13;23.23;;;;;;;-0.57;77.62;102891.63;4987650;28;20045;-87
2022/03/21 00:59:35;;;;;;;51.00;24.88;;;;;;;-0.58;77.62;102892.50;5000742;28;20037;-84
2022/03/21 01:02:01;;;;;;;52.92;24.20;;;;;;;-0.63;78.77;102886.22;4970549;28;20034;-85
2022/03/21 01:04:26;;;;;;;52.58;24.45;;;;;;;-0.63;79.03;102888.91;4989144;28;20044;-87
2022/03/21 01:06:51;;;;;;;53.42;26.65;;;;;;;-0.63;78.31;102886.22;4985647;28;20157;-84
2022/03/21 01:09:17;;;;;;;50.25;24.98;;;;;;;-0.65;77.96;102888.91;4991412;28;20037;-83
2022/03/21 01:11:44;;;;;;;54.45;24.58;;;;;;;-0.64;77.46;102898.72;4986967;28;20133;-91
2022/03/21 01:14:10;;;;;;;50.40;23.42;;;;;;;-0.66;77.66;102897.78;4967863;28;20026;-91
2022/03/21 01:16:37;;;;;;;49.17;25.60;;;;;;;-0.68;77.91;102899.56;4992405;28;20486;-85
2022/03/21 01:19:03;;;;;;;57.47;28.13;;;;;;;-0.65;79.18;102896.94;5002636;28;20046;-85
2022/03/21 01:21:29;;;;;;;62.25;30.25;;;;;;;-0.66;80.54;102894.22;4987641;28;20485;-84
2022/03/21 01:23:55;;;;;;;65.70;30.63;;;;;;;-0.70;80.33;102896.00;5002845;28;20034;-83
2022/03/21 01:26:20;;;;;;;54.10;26.90;;;;;;;-0.76;78.95;102901.28;5003458;28;20029;-87
2022/03/21 01:28:45;;;;;;;47.88;25.85;;;;;;;-0.89;78.83;102900.28;4984415;28;20107;-87
2022/03/21 01:31:11;;;;;;;51.53;26.30;;;;;;;-0.93;80.38;102906.50;4971650;28;20068;-90
2022/03/21 01:33:38;;;;;;;51.53;25.55;;;;;;;-0.97;81.02;102896.69;4997443;28;20396;-83
2022/03/21 01:36:05;;;;;;;53.92;26.15;;;;;;;-0.99;80.23;102895.75;4970615;28;20397;-87
2022/03/21 01:38:30;;;;;;;55.03;26.98;;;;;;;-1.06;80.46;102892.16;4990402;28;20042;-90
2022/03/21 01:40:55;;;;;;;59.42;26.70;;;;;;;-1.04;80.38;102900.16;4984725;28;21012;-89
2022/03/21 01:43:21;;;;;;;53.63;25.48;;;;;;;-1.01;79.97;102902.88;5004662;28;20080;-84
2022/03/21 01:45:46;;;;;;;57.55;28.55;;;;;;;-1.03;80.76;102893.94;4982389;28;20026;-86
2022/03/21 01:48:12;;;;;;;51.00;26.23;;;;;;;-1.02;79.95;102901.09;4985375;28;20049;-91
2022/03/21 01:50:37;;;;;;;58.50;27.40;;;;;;;-1.08;79.76;102903.69;4984866;28;20065;-92
2022/03/21 01:55:48;;;;;;;56.72;26.52;;;;;;;-1.15;80.14;102891.19;4986620;28;20069;-83
2022/03/21 01:58:14;;;;;;;54.88;24.88;;;;;;;-1.10;79.83;102903.69;4979800;28;20132;-85
2022/03/21 02:00:45;;;;;;;51.85;25.13;;;;;;;-1.10;80.63;102901.00;4982986;28;20116;-83
2022/03/21 02:03:11;;;;;;;56.53;26.92;;;;;;;-1.13;79.87;102900.97;4968434;28;20038;-83
2022/03/21 02:05:38;;;;;;;48.85;25.95;;;;;;;-1.16;79.44;102892.97;4967371;28;20030;-91
2022/03/21 02:08:04;;;;;;;56.10;27.63;;;;;;;-1.14;80.95;102892.97;4973915;28;20033;-85
2022/03/21 02:10:30;;;;;;;50.38;24.80;;;;;;;-1.15;80.86;102900.06;4990275;28;20045;-83
2022/03/21 02:12:56;;;;;;;55.40;25.60;;;;;;;-1.12;80.30;102900.13;4987769;28;20046;-87
2022/03/21 02:15:22;;;;;;;49.70;25.58;;;;;;;-1.13;80.87;102902.75;4988540;28;20030;-93
2022/03/21 02:17:50;;;;;;;57.53;27.52;;;;;;;-1.18;81.58;102909.84;4970582;28;20038;-87
2022/03/21 02:20:17;;;;;;;48.42;24.65;;;;;;;-1.24;80.55;102905.34;4982673;28;20267;-87
2022/03/21 02:22:43;;;;;;;48.58;25.15;;;;;;;-1.23;80.87;102915.13;4985357;28;20030;-85
2022/03/21 02:25:32;;;;;;;47.22;24.98;;;;;;;-1.22;79.44;102908.00;4959705;28;20045;-87
2022/03/21 02:28:00;;;;;;;50.65;22.75;;;;;;;-1.25;79.43;102913.34;4973764;28;20168;-84
2022/03/21 02:30:27;;;;;;;51.40;25.95;;;;;;;-1.29;80.72;102902.63;4983679;28;20034;-83
2022/03/21 02:32:54;;;;;;;56.90;26.48;;;;;;;-1.29;80.99;102907.06;4972028;28;20200;-88
2022/03/21 02:35:20;;;;;;;54.17;27.65;;;;;;;-1.25;81.92;102919.56;4989591;28;20438;-85
2022/03/21 02:37:46;;;;;;;64.30;31.10;;;;;;;-1.26;83.58;102908.84;5001674;28;20076;-92
2022/03/21 02:40:13;;;;;;;56.42;27.30;;;;;;;-1.33;83.10;102902.56;4987963;28;20049;-85
2022/03/21 02:42:38;;;;;;;61.85;28.42;;;;;;;-1.36;83.89;102906.09;4961990;28;20042;-86
2022/03/21 02:45:05;;;;;;;61.20;28.13;;;;;;;-1.37;84.25;102912.31;4969541;28;20119;-84
2022/03/21 02:47:30;;;;;;;51.58;25.90;;;;;;;-1.40;83.56;102906.03;4988247;28;20133;-83
2022/03/21 02:49:59;;;;;;;57.97;27.55;;;;;;;-1.39;83.31;102915.88;5000657;28;20052;-85
2022/03/21 02:52:26;;;;;;;51.75;24.73;;;;;;;-1.39;82.87;102910.53;4981434;28;20124;-87
2022/03/21 02:54:52;;;;;;;51.75;24.92;;;;;;;-1.43;81.92;102912.25;4973165;28;20501;-83
2022/03/21 02:57:17;;;;;;;52.80;26.27;;;;;;;-1.43;82.57;102906.94;4973013;28;20048;-93
2022/03/21 02:59:42;;;;;;;57.45;27.27;;;;;;;-1.42;82.76;102898.03;4985467;28;20378;-87
2022/03/21 03:02:09;;;;;;;49.10;22.65;;;;;;;-1.44;81.74;102904.25;4997460;28;20478;-84
2022/03/21 03:04:34;;;;;;;54.42;25.83;;;;;;;-1.43;82.78;102912.25;4984882;28;20128;-85
2022/03/21 03:07:00;;;;;;;53.38;25.23;;;;;;;-1.43;82.27;102904.25;4993177;28;20436;-85
2022/03/21 03:09:25;;;;;;;52.78;25.63;;;;;;;-1.49;81.89;102898.88;4983981;28;20045;-83
2022/03/21 03:11:51;;;;;;;43.30;23.63;;;;;;;-1.49;81.71;102900.63;4962836;28;20486;-87
2022/03/21 03:14:16;;;;;;;51.38;23.60;;;;;;;-1.52;81.46;102898.81;4989427;28;20026;-83
2022/03/21 03:16:42;;;;;;;61.63;25.42;;;;;;;-1.53;82.07;102906.81;4990611;28;20038;-87
2022/03/21 03:19:07;;;;;;;58.35;28.23;;;;;;;-1.54;83.46;102908.56;4993619;28;20055;-87
2022/03/21 03:21:43;;;;;;;64.68;28.77;;;;;;;-1.52;83.52;102908.59;4989337;28;20053;-90
2022/03/21 03:24:10;;;;;;;57.53;27.85;;;;;;;-1.55;83.20;102910.34;5009689;28;20125;-87
2022/03/21 03:26:35;;;;;;;59.28;27.67;;;;;;;-1.56;83.07;102903.22;4971282;28;20029;-87
2022/03/21 03:29:01;;;;;;;54.60;27.80;;;;;;;-1.54;83.54;102908.56;4983778;28;20037;-85
2022/03/21 03:31:26;;;;;;;61.42;28.60;;;;;;;-1.57;84.07;102906.78;5006349;28;20046;-83
2022/03/21 03:33:53;;;;;;;63.92;27.80;;;;;;;-1.58;84.44;102906.78;4991799;28;20041;-85
2022/03/21 03:36:19;;;;;;;59.28;27.45;;;;;;;-1.60;84.31;102904.06;4992126;28;20088;-83
2022/03/21 03:38:45;;;;;;;60.33;28.10;;;;;;;-1.67;84.50;102904.00;4987197;28;20069;-90
2022/03/21 03:41:11;;;;;;;61.97;29.17;;;;;;;-1.63;84.99;102914.72;4977469;28;20033;-83
2022/03/21 03:43:37;;;;;;;57.80;26.00;;;;;;;-1.66;82.97;102922.69;4983373;28;20547;-92
2022/03/21 03:46:03;;;;;;;54.55;25.65;;;;;;;-1.69;82.50;102922.63;4980139;28;20038;-82
2022/03/21 03:48:29;;;;;;;56.33;25.05;;;;;;;-1.68;82.77;102920.88;5005405;28;20026;-85
2022/03/21 03:50:55;;;;;;;53.92;26.27;;;;;;;-1.68;82.21;102921.78;4999067;28;20037;-85
2022/03/21 03:53:20;;;;;;;54.65;27.40;;;;;;;-1.68;82.34;102910.19;5007043;28;20461;-90
2022/03/21 03:55:46;;;;;;;52.08;26.48;;;;;;;-1.67;81.74;102923.56;4994726;28;20053;-83
2022/03/21 03:58:12;;;;;;;59.25;27.88;;;;;;;-1.64;83.92;102920.91;4988390;28;20026;-85
2022/03/21 04:00:37;;;;;;;48.75;24.05;;;;;;;-1.63;82.89;102921.84;4982939;28;20034;-85
2022/03/21 04:05:46;;;;;;;48.35;24.30;;;;;;;-1.66;81.61;102917.34;4991836;28;20335;-87
2022/03/21 04:08:12;;;;;;;57.65;28.77;;;;;;;-1.63;83.81;102929.84;4974726;28;20041;-87
2022/03/21 04:10:37;;;;;;;55.40;26.90;;;;;;;-1.62;83.72;102923.63;4992705;28;20038;-85
2022/03/21 04:13:03;;;;;;;58.78;27.02;;;;;;;-1.69;82.30;102927.97;4964968;28;20561;-93
2022/03/21 04:15:28;;;;;;;59.28;28.08;;;;;;;-1.78;82.39;102932.31;5006855;28;20121;-83
2022/03/21 04:18:01;;;;;;;53.08;24.88;;;;;;;-1.88;81.88;102926.84;4992435;28;20038;-83
2022/03/21 04:20:29;;;;;;;;;;;;;;;-1.85;80.46;102934.91;4993415;28;20045;-85
2022/03/21 04:22:54;;;;;;;50.17;23.00;;;;;;;-1.91;81.28;102929.50;4991566;28;20280;-83
2022/03/21 04:25:19;;;;;;;50.60;22.58;;;;;;;-1.90;81.15;102930.41;4968835;28;20034;-87
2022/03/21 04:27:45;;;;;;;53.42;26.23;;;;;;;-1.88;83.20;102932.19;4972768;28;20042;-89
2022/03/21 04:30:10;;;;;;;62.80;25.65;;;;;;;-1.89;82.79;102922.41;4987563;28;20409;-88
2022/03/21 04:32:36;;;;;;;54.75;26.45;;;;;;;-1.88;82.72;102926.84;4984822;28;20034;-82
2022/03/21 04:35:01;;;;;;;51.88;26.38;;;;;;;-1.86;83.11;102925.13;4990074;28;20116;-85
2022/03/21 04:37:27;;;;;;;54.15;25.48;;;;;;;-1.84;82.14;102923.38;4967197;28;20053;-87
2022/03/21 04:39:53;;;;;;;46.67;22.70;;;;;;;-1.84;81.44;102922.47;4987167;28;20088;-91
2022/03/21 04:42:19;;;;;;;48.72;23.80;;;;;;;-1.83;81.29;102925.16;5005670;28;20041;-87
2022/03/21 04:44:46;;;;;;;53.85;24.85;;;;;;;-1.84;80.97;102926.03;4985851;28;20037;-86
2022/03/21 04:47:12;;;;;;;53.00;25.20;;;;;;;-1.85;81.23;102924.25;4988674;28;20126;-87
2022/03/21 04:49:37;;;;;;;50.80;24.52;;;;;;;-1.88;81.41;102923.31;4992055;28;20180;-87
2022/03/21 04:52:03;;;;;;;51.95;23.35;;;;;;;-1.90;80.56;102930.41;4989813;28;20045;-89
2022/03/21 04:54:28;;;;;;;50.70;24.10;;;;;;;-1.92;80.59;102922.38;4991934;28;20133;-83
2022/03/21 04:56:55;;;;;;;51.15;24.63;;;;;;;-1.91;82.82;102928.59;4989578;28;20080;-83
2022/03/21 04:59:20;;;;;;;53.50;25.88;;;;;;;-1.94;83.46;102940.13;4966918;28;20049;-87
2022/03/21 05:01:46;;;;;;;56.20;26.83;;;;;;;-2.03;83.88;102940.00;4985322;28;20346;-83
2022/03/21 05:04:11;;;;;;;50.28;24.67;;;;;;;-2.07;83.85;102941.72;4986403;28;20146;-83
2022/03/21 05:06:36;;;;;;;62.08;28.77;;;;;;;-2.08;85.27;102941.72;4980310;28;20070;-93
2022/03/21 05:09:03;;;;;;;51.83;26.55;;;;;;;-2.06;83.74;102945.28;4986487;28;20033;-91
2022/03/21 05:11:29;;;;;;;64.80;28.33;;;;;;;-2.05;84.67;102939.09;5009850;28;20045;-93
2022/03/21 05:13:55;;;;;;;55.78;25.50;;;;;;;-2.05;83.81;102949.78;4987666;28;20101;-93
2022/03/21 05:16:21;;;;;;;48.35;23.98;;;;;;;-2.08;82.10;102950.63;4999445;28;20468;-83
2022/03/21 05:18:48;;;;;;;55.75;26.90;;;;;;;-2.10;82.73;102948.78;4976375;28;20030;-92
2022/03/21 05:21:14;;;;;;;53.15;26.20;;;;;;;-2.13;82.32;102952.31;4966816;28;20034;-83
2022/03/21 05:31:51;;;;;;;57.30;24.77;;;;;;;-2.21;82.90;102951.31;5004426;28;20045;-87
2022/03/21 05:37:00;;;;;;;50.67;23.73;;;;;;;-2.25;82.97;102941.47;4989281;28;20042;-83
2022/03/21 05:39:26;;;;;;;60.65;27.42;;;;;;;-2.22;84.74;102956.63;5007558;28;21071;-83
2022/03/21 05:41:52;;;;;;;63.00;28.27;;;;;;;-2.22;85.04;102957.53;4989721;28;20030;-83
2022/03/21 05:44:18;;;;;;;55.30;27.40;;;;;;;-2.21;83.52;102958.41;4988216;28;20042;-85
2022/03/21 05:46:43;;;;;;;54.63;26.65;;;;;;;-2.29;82.96;102952.97;4969609;28;20033;-85
2022/03/21 05:49:09;;;;;;;56.15;25.80;;;;;;;-2.33;83.37;102948.50;4990024;28;20053;-92
2022/03/21 05:51:36;;;;;;;54.20;24.65;;;;;;;-2.28;83.16;102957.44;5003093;28;20484;-87
2022/03/21 05:54:05;;;;;;;58.05;26.10;;;;;;;-2.25;83.05;102953.91;5007006;28;20097;-92
2022/03/21 05:56:32;;;;;;;55.45;26.08;;;;;;;-2.20;83.99;102961.09;4989146;28;20032;-83
2022/03/21 06:00:20;;;;;;;56.88;26.77;;;;;;;-2.16;83.42;102946.03;4984666;28;20785;-87
2022/03/21 06:01:50;;;;;;;61.28;28.35;;;;;;;-2.09;85.35;102959.50;5005204;28;20034;-87
2022/03/21 06:04:16;;;;;;;63.13;31.13;;;;;;;-2.04;83.86;102959.56;4985928;28;20056;-86
2022/03/21 06:06:45;;;;;;;67.43;28.00;;;;;;;-1.98;82.77;102964.06;4970489;28;20022;-85
2022/03/21 06:09:12;;;;;;;61.63;27.00;;;;;;;-1.95;82.86;102965.03;4987720;28;20042;-86
2022/03/21 06:11:38;;;;;;;56.60;28.23;;;;;;;-1.90;82.13;102965.06;4993178;28;20627;-93
2022/03/21 06:14:05;;;;;;;53.83;25.60;;;;;;;-1.86;81.75;102966.91;4987307;28;20061;-91
2022/03/21 06:16:31;;;;;;;56.90;26.33;;;;;;;-1.83;82.11;102958.94;5005005;28;20064;-86
2022/03/21 06:18:59;;;;;;;50.53;23.52;;;;;;;-1.76;81.76;102967.94;4977042;28;20034;-92
2022/03/21 06:21:30;;;;;;;55.63;25.58;;;;;;;-1.71;81.01;102971.53;4970668;28;20498;-87
2022/03/21 06:23:59;;;;;;;61.67;28.38;;;;;;;-1.68;81.46;102975.16;5007240;28;20049;-83
2022/03/21 06:26:24;;;;;;;58.85;27.45;;;;;;;-1.62;82.94;102985.00;4973134;28;20054;-86
2022/03/21 06:28:50;;;;;;;65.05;28.05;;;;;;;-1.57;82.54;102977.94;4990412;28;20073;-86
2022/03/21 06:31:15;;;;;;;59.55;28.40;;;;;;;-1.39;82.67;102986.16;5011648;28;20104;-92
2022/03/21 06:33:41;;;;;;;58.60;28.17;;;;;;;-1.13;81.60;102978.41;4976625;28;20457;-83
2022/03/21 06:36:07;;;;;;;55.03;26.23;;;;;;;-0.67;81.56;102976.19;4977103;28;20453;-88
2022/03/21 06:38:34;;;;;;;73.85;29.13;;;;;;;-0.29;80.60;102976.47;4994193;28;20072;-92
2022/03/21 06:41:03;;;;;;;63.95;28.83;;;;;;;0.04;79.22;102982.03;5012514;28;20057;-86
2022/03/21 06:43:29;;;;;;;59.72;28.67;;;;;;;0.13;78.10;102988.31;4992853;28;20176;-86
2022/03/21 06:45:56;;;;;;;68.35;29.77;;;;;;;0.20;77.54;102992.81;4993484;28;20045;-81
2022/03/21 06:48:27;;;;;;;66.70;31.73;;;;;;;0.49;79.17;102992.94;4974159;28;20101;-88
2022/03/21 06:50:55;;;;;;;64.07;28.40;;;;;;;0.72;79.62;102979.63;4968544;28;20327;-84
2022/03/21 06:53:21;;;;;;;67.95;33.38;;;;;;;0.93;80.10;102996.63;4992381;28;20018;-88
2022/03/21 06:55:46;;;;;;;77.68;33.55;;;;;;;1.06;80.27;103006.50;4976636;28;20030;-83
2022/03/21 06:58:13;;;;;;;64.88;30.63;;;;;;;1.35;78.20;103001.16;4974826;28;20061;-85
2022/03/21 07:00:43;;;;;;;65.78;30.98;;;;;;;1.58;77.47;103002.94;4993400;28;20524;-88
2022/03/21 07:03:09;;;;;;;67.38;32.35;;;;;;;1.76;79.47;103006.50;4993570;28;20054;-85
2022/03/21 07:05:37;;;;;;;76.95;33.42;;;;;;;1.92;79.51;103011.88;4992240;28;20468;-85
2022/03/21 07:08:04;;;;;;;72.40;31.52;;;;;;;2.22;79.17;102998.38;4973197;28;20061;-93
2022/03/21 07:10:32;;;;;;;72.18;33.20;;;;;;;2.77;77.60;103002.63;4992477;28;20041;-86
2022/03/21 07:13:01;;;;;;;64.93;31.35;;;;;;;3.29;76.98;103002.28;4991117;28;20046;-84
2022/03/21 07:15:27;;;;;;;64.93;31.25;;;;;;;4.04;75.58;103004.31;5004263;28;20053;-94
2022/03/21 07:17:55;;;;;;;67.32;31.48;;;;;;;4.60;73.44;103010.84;4975542;28;20044;-88
2022/03/21 07:20:20;;;;;;;59.20;29.83;;;;;;;5.05;72.33;103013.81;4976908;28;20037;-83
2022/03/21 07:22:46;;;;;;;79.43;34.60;;;;;;;5.64;70.88;103006.56;4976602;28;20026;-84
2022/03/21 07:25:11;;;;;;;69.55;31.83;;;;;;;6.31;69.14;102999.06;4992040;28;20052;-93
2022/03/21 07:27:37;;;;;;;69.50;34.95;;;;;;;7.00;66.67;103008.44;4977756;28;20129;-82
2022/03/21 07:30:03;;;;;;;70.88;33.78;;;;;;;7.27;64.68;103006.88;4992588;28;20062;-84
2022/03/21 07:32:29;;;;;;;64.30;33.70;;;;;;;7.36;64.97;102999.41;4993567;28;20117;-90
2022/03/21 07:34:54;;;;;;;62.83;32.72;;;;;;;7.89;63.66;102999.88;4992157;28;20062;-84
2022/03/21 07:37:20;;;;;;;60.67;31.95;;;;;;;8.14;62.76;103007.34;4967267;28;20026;-85
2022/03/21 07:39:47;;;;;;;65.20;32.58;;;;;;;7.96;62.86;103006.00;4991062;28;20042;-84
2022/03/21 07:42:16;;;;;;;65.32;33.28;;;;;;;8.13;64.53;103003.75;4991983;28;20062;-84
2022/03/21 07:47:27;;;;;;;66.00;29.77;;;;;;;9.22;62.53;103010.50;4993245;28;20049;-89
2022/03/21 07:49:55;;;;;;;63.00;34.53;;;;;;;9.60;61.60;103007.41;4982380;28;20037;-83
2022/03/21 07:52:21;;;;;;;57.55;33.40;;;;;;;9.74;61.36;103012.38;4996912;28;20042;-89
2022/03/21 07:54:55;;;;;;;52.65;30.17;;;;;;;9.70;61.55;103011.59;4989480;28;20033;-88
2022/03/21 07:57:22;;;;;;;55.78;31.23;;;;;;;9.62;62.01;103005.53;4980420;28;20065;-85
2022/03/21 07:59:48;;;;;;;59.00;31.02;;;;;;;9.61;62.84;103011.91;4992668;28;20034;-84
2022/03/21 08:02:13;;;;;;;53.88;30.92;;;;;;;9.60;62.63;103009.22;4980500;28;20044;-93
2022/03/21 08:04:39;;;;;;;48.33;27.88;;;;;;;9.55;64.36;103016.66;4996747;28;20069;-82
2022/03/21 08:07:04;;;;;;;50.03;26.75;;;;;;;9.44;64.50;103014.28;4994972;28;20033;-82
2022/03/21 08:09:30;;;;;;;45.72;25.48;;;;;;;9.46;65.52;103012.41;5013851;28;20034;-87
2022/03/21 08:11:57;;;;;;;44.05;24.55;;;;;;;9.34;65.99;103011.00;4978276;28;20112;-84
2022/03/21 08:14:23;;;;;;;42.08;23.45;;;;;;;9.23;66.00;103021.28;4988211;28;20034;-84
2022/03/21 08:16:50;;;;;;;40.05;21.77;;;;;;;9.12;67.24;103020.75;5018992;28;20855;-91
2022/03/21 08:19:16;;;;;;;36.15;21.05;;;;;;;9.22;66.70;103019.53;4995379;28;20038;-90
2022/03/21 08:21:42;;;;;;;43.00;21.98;;;;;;;9.37;67.25;103018.13;5011977;28;20073;-93
2022/03/21 08:24:08;;;;;;;36.58;21.17;;;;;;;9.52;67.13;103022.22;5013646;28;20073;-88
2022/03/21 08:26:35;;;;;;;35.35;19.90;;;;;;;9.52;65.42;103028.53;4995436;28;20022;-83
2022/03/21 08:29:01;;;;;;;33.22;19.20;;;;;;;9.54;65.72;103023.03;4978787;28;20144;-88
2022/03/21 08:31:26;;;;;;;38.47;19.10;;;;;;;9.45;64.37;103010.63;4994003;28;20061;-85
2022/03/21 08:33:52;;;;;;;32.08;19.00;;;;;;;9.58;65.05;103020.16;4992384;28;20461;-85
2022/03/21 08:36:17;;;;;;;36.65;18.35;;;;;;;9.56;63.87;103012.97;4994378;28;20053;-89
2022/03/21 08:38:43;;;;;;;33.60;18.75;;;;;;;9.45;64.59;103016.06;4999396;28;20041;-90
2022/03/21 08:41:08;;;;;;;34.72;19.02;;;;;;;9.61;65.37;103009.19;5015916;28;20397;-91
2022/03/21 08:43:33;;;;;;;34.13;18.42;;;;;;;9.66;64.54;103017.19;4978819;28;20033;-92
2022/03/21 08:45:59;;;;;;;31.48;18.65;;;;;;;9.64;65.05;103010.91;4998266;28;20046;-86
2022/03/21 08:49:23;;;;;;;33.72;18.27;;;;;;;9.66;64.95;103020.81;5013375;28;20034;-88
2022/03/21 08:51:10;;;;;;;38.58;18.60;;;;;;;9.73;64.39;103010.59;5013130;28;20042;-81
2022/03/21 08:53:35;;;;;;;35.72;18.73;;;;;;;9.87;65.23;103024.59;4997092;28;20026;-84
2022/03/21 08:56:01;;;;;;;33.03;16.42;;;;;;;9.97;62.09;103004.28;4978027;28;20036;-87
2022/03/21 08:58:27;;;;;;;33.30;18.20;;;;;;;9.94;63.10;103001.72;4985273;28;20041;-83
2022/03/21 09:00:52;;;;;;;31.02;17.27;;;;;;;10.20;64.29;103008.03;4995433;28;20038;-86
2022/03/21 09:03:18;;;;;;;30.55;16.00;;;;;;;10.59;62.65;103015.72;4978004;28;20410;-84
2022/03/21 09:05:43;;;;;;;33.88;16.60;;;;;;;10.84;61.11;103012.94;4973784;28;20490;-87
2022/03/21 09:08:09;;;;;;;31.27;18.05;;;;;;;10.94;60.55;103003.47;5004824;28;20033;-87
2022/03/21 09:10:34;;;;;;;30.48;17.30;;;;;;;11.20;60.87;103025.13;4992386;28;20038;-84
2022/03/21 09:13:00;;;;;;;37.47;17.45;;;;;;;11.28;60.50;103002.09;4995440;28;20053;-84
2022/03/21 09:15:26;;;;;;;29.75;16.77;;;;;;;11.40;58.52;103013.38;4994386;28;20080;-85
2022/03/21 09:17:51;;;;;;;29.27;15.70;;;;;;;11.56;59.76;103013.63;4995699;28;20036;-91
2022/03/21 09:20:17;;;;;;;32.50;17.08;;;;;;;11.61;58.50;103017.09;4995164;28;20030;-84
2022/03/21 09:22:42;;;;;;;32.30;17.30;;;;;;;11.45;58.62;103011.34;4995746;28;20033;-93
2022/03/21 09:25:08;;;;;;;29.17;18.33;;;;;;;11.61;59.80;103010.72;5013608;28;20034;-91
2022/03/21 09:27:37;;;;;;;34.60;17.83;;;;;;;11.46;57.20;103002.22;4987497;28;20049;-89
2022/03/21 09:30:03;;;;;;;34.15;18.02;;;;;;;11.61;60.44;102995.28;4991934;28;20378;-90
2022/03/21 09:32:28;;;;;;;33.35;17.65;;;;;;;12.11;59.76;103002.22;4993986;28;20086;-90
2022/03/21 09:34:54;;;;;;;31.52;16.63;;;;;;;12.32;57.37;102994.94;4996134;28;20082;-82
2022/03/21 09:37:19;;;;;;;27.40;16.52;;;;;;;12.29;56.37;103003.25;4993510;28;20516;-93
2022/03/21 09:39:45;;;;;;;27.52;15.57;;;;;;;12.42;56.39;102996.28;5000264;28;20084;-88
2022/03/21 09:42:10;;;;;;;31.58;16.77;;;;;;;12.80;57.36;102993.59;5015356;28;20067;-89
2022/03/21 09:44:36;;;;;;;28.63;15.60;;;;;;;12.91;55.63;102988.50;4991178;28;20035;-90
2022/03/21 09:48:08;;;;;;;25.92;14.98;;;;;;;13.16;54.61;102990.97;4995833;28;20133;-82
2022/03/21 09:49:51;;;;;;;27.58;15.55;;;;;;;13.46;53.90;102983.97;5013354;28;20052;-82
2022/03/21 09:52:17;;;;;;;27.95;14.70;;;;;;;13.67;53.78;102986.59;4979294;28;20116;-93
2022/03/21 09:54:43;;;;;;;28.15;13.95;;;;;;;13.81;53.15;102980.44;4987387;28;20309;-81
2022/03/21 09:57:08;;;;;;;26.60;14.18;;;;;;;14.01;52.63;102983.00;5011304;28;20105;-82
2022/03/21 09:59:34;;;;;;;23.73;14.32;;;;;;;14.45;53.52;102985.19;4978259;28;20027;-85
2022/03/21 10:02:02;;;;;;;25.40;13.73;;;;;;;14.38;49.45;102989.25;4994514;28;20492;-84
2022/03/21 10:04:29;;;;;;;27.33;14.68;;;;;;;14.58;49.97;102978.09;4998084;28;20022;-84
2022/03/21 10:07:00;;;;;;;27.20;14.63;;;;;;;14.53;49.37;102981.09;5006387;28;20053;-85
2022/03/21 10:09:26;;;;;;;25.57;14.60;;;;;;;14.23;48.45;102964.47;4996614;28;20037;-83
2022/03/21 10:11:53;;;;;;;29.20;14.52;;;;;;;14.46;49.56;102976.03;4992843;28;20033;-84
2022/03/21 10:14:36;;;;;;;26.48;13.18;;;;;;;14.48;49.97;102966.78;4989872;28;20061;-90
2022/03/21 10:17:10;;;;;;;24.92;13.38;;;;;;;14.51;50.21;102969.34;4996666;28;20440;-84
2022/03/21 10:19:46;;;;;;;26.27;15.57;;;;;;;14.80;51.24;102967.72;4996018;28;20038;-90
2022/03/21 10:22:15;;;;;;;31.52;13.57;;;;;;;14.75;46.77;102963.47;4993017;28;20068;-89
2022/03/21 10:24:46;;;;;;;19.92;12.40;;;;;;;14.89;50.37;102973.66;4996032;28;20105;-92
2022/03/21 10:27:32;;;;;;;32.80;14.40;;;;;;;15.14;50.82;102963.03;4994589;28;20046;-90
2022/03/21 10:30:09;;;;;;;28.02;13.18;;;;;;;15.50;47.77;102959.13;5002221;28;20029;-88
2022/03/21 10:32:37;;;;;;;23.67;13.10;;;;;;;15.85;47.07;102959.75;4997911;28;20044;-88
2022/03/21 10:35:07;;;;;;;22.33;13.13;;;;;;;15.86;44.50;102964.31;4994716;28;20112;-85
2022/03/21 10:37:42;;;;;;;24.77;13.75;;;;;;;16.08;47.89;102961.97;5006705;28;20061;-83
2022/03/21 10:40:30;;;;;;;21.23;12.38;;;;;;;16.40;48.13;102963.69;4975610;28;20383;-84
2022/03/21 10:43:03;;;;;;;23.73;13.57;;;;;;;16.12;44.74;102959.94;5009391;28;20070;-91
2022/03/21 10:45:42;;;;;;;;;;;;;;;16.04;48.25;102965.91;4994780;28;20481;-83
2022/03/21 10:48:13;;;;;;;22.85;13.25;;;;;;;15.92;45.32;102957.53;4974511;28;19947;-89
2022/03/21 10:50:46;;;;;;;25.70;14.13;;;;;;;15.81;45.55;102959.09;4979024;28;20030;-89
2022/03/21 10:53:22;;;;;;;25.50;13.55;;;;;;;15.92;46.98;102954.81;5007638;28;20042;-83
2022/03/21 10:55:50;;;;;;;24.80;15.02;;;;;;;15.89;45.71;102941.25;4995906;28;20042;-90
2022/03/21 10:58:31;;;;;;;27.48;14.02;;;;;;;15.78;45.51;102948.28;4978736;28;20394;-92
2022/03/21 11:01:11;;;;;;;26.73;14.02;;;;;;;15.98;47.47;102944.31;5010172;28;20045;-89
2022/03/21 11:03:40;;;;;;;23.00;13.63;;;;;;;16.02;45.64;102945.91;4981295;28;20434;-84
2022/03/21 11:06:07;;;;;;;28.10;14.18;;;;;;;16.11;46.02;102944.44;4994071;28;20018;-92
2022/03/21 11:08:33;;;;;;;27.48;13.27;;;;;;;16.45;45.15;102937.69;4985580;28;20040;-82
2022/03/21 11:10:59;;;;;;;25.45;14.02;;;;;;;16.82;45.89;102938.09;4986491;28;20034;-83
2022/03/21 11:13:26;;;;;;;24.83;14.10;;;;;;;17.29;44.14;102945.06;4987206;28;20038;-88
2022/03/21 11:15:52;;;;;;;23.70;14.00;;;;;;;17.62;41.75;102930.84;5003621;28;20061;-90
2022/03/21 11:18:20;;;;;;;24.33;14.52;;;;;;;17.82;41.67;102937.78;5011166;28;20053;-90
2022/03/21 11:20:49;;;;;;;22.75;13.02;;;;;;;18.01;40.89;102934.63;4999493;28;20371;-90
2022/03/21 11:23:15;;;;;;;23.85;13.98;;;;;;;17.95;41.56;102938.72;4991964;28;20421;-84
2022/03/21 11:25:53;;;;;;;22.48;14.48;;;;;;;17.87;40.63;102932.84;5013903;28;20734;-82
2022/03/21 11:28:45;;;;;;;25.95;15.55;;;;;;;17.96;42.95;102928.56;4984639;28;20093;-89
2022/03/21 11:31:26;;;;;;;25.35;14.52;;;;;;;18.19;43.51;102938.84;4998092;28;20042;-89